Terminal Aerodrome Forecast
Issued by NWS Jackson, KY

Home | Current Version | Previous Version | Text Only | Print | Product List | Glossary On
Versions: 1 2 3 4 5 6 7 8 9 10 11 12 13 14 15 16
128
FTUS43 KJKL 231306 AAA
TAFLOZ
TAF AMD
KLOZ 231306Z 2313/2412 00000KT P6SM SCT001 BKN003
     FM231400 00000KT P6SM SCT005 BKN008
     FM231500 VRB03KT P6SM BKN015
     FM231600 VRB03KT P6SM BKN025
     FM231700 02004KT P6SM SCT050
     FM232300 VRB05KT P6SM SKC=

USA.gov is the U.S. government's official web portal to all federal, state and local government web resources and services.